首页
METAR-TAF:

METAR-TAF

机场 :

瓦利斯, 法国

馬塔烏圖機場

纬度: 13-14S, 经度: 176-10W, 海拔: 23米

METAR: 丢失

时间: 01:18 (13:18 UTC)

预报

该预报发布于2小时和18分钟前的11:00 UTC
预报有效从17日的 12点(UTC)到 18日的 12点(UTC)
风速7节,风向东转东南
能见度10公里或以上
散云层高于2000英尺
散云层高于3000英尺
短暂存在
从 17日的 12点(UTC)到 18日的 12点(UTC)
能見度: 3000
散云层高于2000英尺, 塔状积云.
阵雨
几率 40% :
短暂存在
从 17日的 12点(UTC)到 17日的 20点(UTC)
风速15节,风向多变,有时为25节阵风
能見度: 1000
散云层高于1500英尺, 积雨云.
阵雨
几率 40% :
短暂存在
从 18日的 00点(UTC)到 18日的 10点(UTC)
风速15节,风向多变,有时为25节阵风
能見度: 1000
散云层高于1500英尺, 积雨云.
阵雨

TAF: NLWW 171100Z 1712/1812 12007KT 9999 SCT020 SCT030 TEMPO 1712/1812 3000 SHRA SCT020TCU PROB40 TEMPO 1712/1720 VRB15G25KT 1000 SHRA SCT015CB PROB40 TEMPO 1800/1810 VRB15G25KT 1000 SHRA SCT015CB

超过4000个机场的气象观测和天气预报(METAR&TAF报告)。

可查询的气象台以黄色和红色小点在地图上表示。

将鼠标移到小点上方,可查看气象台名称。

然后点击查看天气观测和预报。

如需切换地图:点击带黑十字的绿色按钮放大地图;点击带横线的绿色按钮缩小地图;或者点击绿色箭头查看邻近地区的地图。


METAR-TAF: